createdAt,value
2023-04-22T00:01:51.455Z,76.50
2023-04-22T00:04:21.838Z,76.40
2023-04-22T00:06:50.543Z,76.40
2023-04-22T00:09:18.886Z,76.40
2023-04-22T00:11:47.187Z,76.40
2023-04-22T00:14:15.482Z,76.30
2023-04-22T00:16:43.933Z,76.30
2023-04-22T00:19:12.815Z,76.30
2023-04-22T00:21:42.556Z,76.20
2023-04-22T00:24:10.779Z,76.10
2023-04-22T00:26:39.201Z,76.90
2023-04-22T00:29:07.513Z,76.10
2023-04-22T00:31:35.996Z,76.30
2023-04-22T00:34:04.452Z,76.40
2023-04-22T00:36:32.869Z,76.40
2023-04-22T00:39:02.678Z,76.40
2023-04-22T00:41:31.844Z,76.30
2023-04-22T00:44:01.874Z,76.40
2023-04-22T00:46:30.717Z,76.30
2023-04-22T00:48:59.744Z,76.20
2023-04-22T00:51:28.114Z,76.20
2023-04-22T00:53:56.526Z,76.30
2023-04-22T00:56:27.671Z,76.30
2023-04-22T00:58:56.611Z,76.20
2023-04-22T01:01:26.005Z,76.30
2023-04-22T01:03:54.817Z,76.30
2023-04-22T01:06:25.494Z,76.30
2023-04-22T01:08:53.853Z,76.40
2023-04-22T01:11:23.442Z,76.60
2023-04-22T01:13:53.478Z,76.60
2023-04-22T01:16:22.848Z,76.70
2023-04-22T01:18:51.191Z,76.80
2023-04-22T01:21:19.965Z,76.90
2023-04-22T01:23:49.936Z,77.10
2023-04-22T01:26:18.324Z,77.00
2023-04-22T01:28:46.962Z,77.10
2023-04-22T01:31:15.230Z,77.10
2023-04-22T01:33:44.392Z,77.10
2023-04-22T01:36:13.418Z,77.20
2023-04-22T01:38:42.174Z,77.40
2023-04-22T01:41:12.005Z,77.40
2023-04-22T01:43:40.921Z,77.50
2023-04-22T01:46:09.758Z,77.70
2023-04-22T01:48:38.592Z,77.60
2023-04-22T01:51:06.891Z,77.70
2023-04-22T01:53:35.220Z,77.70
2023-04-22T01:56:03.782Z,77.70
2023-04-22T01:58:35.817Z,77.90
2023-04-22T02:01:04.170Z,77.90
2023-04-22T02:03:32.630Z,78.00
2023-04-22T02:06:01.110Z,78.00
2023-04-22T02:08:29.537Z,78.30
2023-04-22T02:10:58.336Z,78.30
2023-04-22T02:13:26.757Z,78.50
2023-04-22T02:15:56.518Z,78.50
2023-04-22T02:18:24.810Z,78.70
2023-04-22T02:20:53.124Z,78.80
2023-04-22T02:23:21.786Z,78.90
2023-04-22T02:25:52.008Z,78.90
2023-04-22T02:28:20.421Z,78.90
2023-04-22T02:30:48.709Z,79.10
2023-04-22T02:33:18.511Z,79.20
2023-04-22T02:35:47.296Z,79.30
2023-04-22T02:38:15.785Z,79.50
2023-04-22T02:40:44.202Z,79.50
2023-04-22T02:43:12.557Z,79.60
2023-04-22T02:45:41.560Z,79.70
2023-04-22T02:48:10.050Z,79.70
2023-04-22T02:50:39.937Z,79.80
2023-04-22T02:53:09.220Z,80.10
2023-04-22T02:55:37.830Z,80.50
2023-04-22T02:58:06.623Z,80.80
2023-04-22T03:00:35.045Z,80.90
2023-04-22T03:03:03.618Z,81.10
2023-04-22T03:05:32.195Z,81.30
2023-04-22T03:08:01.872Z,82.00
2023-04-22T03:10:30.256Z,81.90
2023-04-22T03:12:58.594Z,82.50
2023-04-22T03:15:26.868Z,82.50
2023-04-22T03:17:55.257Z,82.40
2023-04-22T03:20:23.695Z,82.40
2023-04-22T03:22:52.019Z,82.70
2023-04-22T03:25:21.851Z,83.20
2023-04-22T03:27:50.130Z,83.40
2023-04-22T03:30:18.481Z,83.80
2023-04-22T03:32:46.746Z,83.50
2023-04-22T03:35:15.204Z,83.70
2023-04-22T03:37:43.520Z,83.80
2023-04-22T03:40:13.667Z,83.80
2023-04-22T03:42:43.772Z,84.80
2023-04-22T03:45:12.655Z,84.40
2023-04-22T03:47:41.178Z,84.30
2023-04-22T03:50:10.125Z,84.10
2023-04-22T03:52:38.413Z,84.00
2023-04-22T03:55:07.537Z,83.80
2023-04-22T03:57:35.918Z,84.60
2023-04-22T04:00:06.658Z,84.40
2023-04-22T04:02:35.176Z,84.60
2023-04-22T04:05:03.717Z,84.30
2023-04-22T04:07:32.409Z,84.40
2023-04-22T04:10:00.681Z,84.30
2023-04-22T04:12:29.025Z,84.40
2023-04-22T04:14:57.305Z,84.50
2023-04-22T04:17:28.966Z,84.60
2023-04-22T04:19:57.362Z,84.60
2023-04-22T04:22:25.817Z,84.40
2023-04-22T04:24:55.994Z,84.50
2023-04-22T04:27:24.820Z,84.70
2023-04-22T04:29:53.084Z,84.70
2023-04-22T04:32:21.914Z,84.80
2023-04-22T04:34:52.775Z,84.80
2023-04-22T04:37:22.457Z,84.90
2023-04-22T04:39:50.785Z,84.90
2023-04-22T04:42:19.975Z,84.90
2023-04-22T04:44:48.742Z,85.00
2023-04-22T04:47:17.090Z,85.00
2023-04-22T04:49:45.929Z,85.10
2023-04-22T04:52:15.632Z,85.40
2023-04-22T04:54:44.005Z,86.10
2023-04-22T04:57:12.306Z,85.70
2023-04-22T04:59:40.914Z,85.50
2023-04-22T05:02:09.872Z,85.70
2023-04-22T05:04:38.502Z,85.40
2023-04-22T05:07:06.978Z,85.40
2023-04-22T05:09:37.863Z,85.20
2023-04-22T05:12:06.780Z,85.20
2023-04-22T05:14:35.034Z,85.20
2023-04-22T05:19:45.652Z,84.90
2023-04-22T05:22:13.966Z,84.70
2023-04-22T05:24:43.718Z,84.50
2023-04-22T05:27:12.160Z,84.40
2023-04-22T05:29:40.853Z,84.30
2023-04-22T05:32:09.734Z,84.10
2023-04-22T05:34:38.020Z,83.90
2023-04-22T05:37:06.410Z,83.80
2023-04-22T05:39:34.817Z,83.80
2023-04-22T05:42:04.700Z,83.30
2023-04-22T05:44:33.047Z,83.40
2023-04-22T05:47:01.335Z,83.20
2023-04-22T05:49:29.659Z,83.00
2023-04-22T05:51:57.955Z,82.70
2023-04-22T05:54:26.332Z,82.20
2023-04-22T05:56:54.694Z,81.80
2023-04-22T05:59:24.443Z,81.40
2023-04-22T06:01:52.765Z,81.10
2023-04-22T06:04:21.641Z,80.90
2023-04-22T06:06:51.137Z,79.60
2023-04-22T06:09:19.421Z,79.20
2023-04-22T06:11:47.808Z,77.50
2023-04-22T06:14:16.366Z,75.50
2023-04-22T06:16:46.158Z,76.20
2023-04-22T06:19:14.512Z,75.20
2023-04-22T06:21:43.477Z,76.00
2023-04-22T06:24:11.760Z,75.80
2023-04-22T06:26:40.088Z,75.90
2023-04-22T06:29:08.452Z,75.90
2023-04-22T06:31:36.864Z,76.00
2023-04-22T06:34:06.577Z,76.20
2023-04-22T06:36:37.600Z,75.40
2023-04-22T06:39:06.524Z,74.90
2023-04-22T06:41:34.832Z,74.90
2023-04-22T06:44:03.132Z,74.70
2023-04-22T06:46:31.491Z,73.80
2023-04-22T06:48:59.878Z,73.60
2023-04-22T06:51:29.551Z,72.60
2023-04-22T06:53:58.416Z,72.30
2023-04-22T06:56:26.909Z,70.90
2023-04-22T06:58:56.585Z,70.40
2023-04-22T07:01:24.974Z,69.90
2023-04-22T07:03:53.435Z,68.60
2023-04-22T07:06:21.855Z,67.20
2023-04-22T07:08:51.903Z,66.10
2023-04-22T07:11:20.258Z,65.90
2023-04-22T07:13:48.610Z,64.10
2023-04-22T07:16:17.006Z,64.90
2023-04-22T07:18:45.401Z,63.60
2023-04-22T07:21:13.704Z,61.10
2023-04-22T07:23:42.000Z,60.20
2023-04-22T07:26:11.723Z,60.70
2023-04-22T07:28:40.109Z,61.80
2023-04-22T07:31:08.416Z,61.30
2023-04-22T07:33:36.706Z,61.60
2023-04-22T07:36:05.462Z,61.20
2023-04-22T07:38:33.834Z,59.40
2023-04-22T07:41:02.144Z,57.90
2023-04-22T07:43:31.983Z,58.50
2023-04-22T07:46:00.542Z,57.90
2023-04-22T07:48:28.970Z,58.70
2023-04-22T07:50:57.344Z,57.20
2023-04-22T07:53:25.820Z,56.70
2023-04-22T07:55:54.236Z,57.50
2023-04-22T07:58:32.986Z,54.60
2023-04-22T08:01:01.376Z,55.90
2023-04-22T08:03:29.847Z,54.80
2023-04-22T08:05:58.698Z,55.90
2023-04-22T08:08:28.237Z,57.20
2023-04-22T08:10:56.512Z,56.50
2023-04-22T08:13:24.837Z,56.20
2023-04-22T08:15:57.661Z,55.20
2023-04-22T08:18:26.009Z,55.60
2023-04-22T08:20:54.333Z,54.80
2023-04-22T08:23:22.844Z,54.90
2023-04-22T08:25:51.966Z,55.20
2023-04-22T08:28:20.273Z,56.20
2023-04-22T08:30:48.614Z,55.30
2023-04-22T08:33:18.722Z,55.30
2023-04-22T08:35:47.188Z,55.70
2023-04-22T08:38:15.749Z,55.50
2023-04-22T08:40:44.221Z,54.80
2023-04-22T08:43:13.484Z,54.80
2023-04-22T08:45:42.449Z,55.00
2023-04-22T08:48:11.454Z,55.50
2023-04-22T08:50:41.197Z,55.00
2023-04-22T08:53:09.539Z,55.10
2023-04-22T08:55:38.177Z,55.00
2023-04-22T08:58:06.814Z,54.40
2023-04-22T09:00:35.891Z,52.50
2023-04-22T09:03:07.176Z,54.20
2023-04-22T09:05:38.173Z,53.60
2023-04-22T09:08:08.963Z,54.20
2023-04-22T09:10:38.890Z,54.00
2023-04-22T09:13:08.718Z,53.70
2023-04-22T09:15:46.383Z,54.10
2023-04-22T09:18:18.798Z,53.20
2023-04-22T09:20:49.100Z,53.00
2023-04-22T09:23:25.153Z,53.10
2023-04-22T09:25:53.570Z,53.10
2023-04-22T09:28:21.883Z,53.60
2023-04-22T09:30:50.215Z,54.00
2023-04-22T09:33:18.531Z,53.10
2023-04-22T09:35:46.871Z,53.20
2023-04-22T09:38:15.170Z,53.50
2023-04-22T09:40:45.605Z,52.50
2023-04-22T09:43:14.181Z,53.40
2023-04-22T09:45:44.276Z,53.10
2023-04-22T09:48:14.370Z,53.10
2023-04-22T09:50:46.500Z,53.00
2023-04-22T09:53:21.245Z,53.40
2023-04-22T09:55:56.053Z,52.80
2023-04-22T09:58:25.860Z,52.70
2023-04-22T10:00:56.970Z,53.30
2023-04-22T10:03:25.410Z,52.80
2023-04-22T10:05:55.480Z,51.80
2023-04-22T10:08:23.743Z,51.90
2023-04-22T10:10:54.609Z,52.60
2023-04-22T10:13:23.243Z,52.70
2023-04-22T10:16:00.092Z,52.90
2023-04-22T10:18:30.080Z,52.40
2023-04-22T10:21:00.539Z,52.60
2023-04-22T10:23:34.092Z,52.60
2023-04-22T10:26:06.863Z,51.90
2023-04-22T10:28:35.255Z,51.30
2023-04-22T10:31:07.925Z,52.00
2023-04-22T10:33:40.223Z,52.50
2023-04-22T10:36:10.917Z,52.30
2023-04-22T10:38:40.365Z,52.40
2023-04-22T10:41:15.378Z,51.70
2023-04-22T10:43:45.616Z,52.00
2023-04-22T10:46:50.951Z,51.80
2023-04-22T10:49:21.836Z,51.00
2023-04-22T10:51:52.033Z,51.30
2023-04-22T10:55:02.619Z,51.00
2023-04-22T10:57:43.373Z,50.00
2023-04-22T11:00:28.038Z,50.80
2023-04-22T11:03:11.748Z,50.70
2023-04-22T11:05:40.814Z,50.70
2023-04-22T11:08:14.490Z,49.20
2023-04-22T11:10:44.968Z,49.80
2023-04-22T11:13:16.684Z,49.30
2023-04-22T11:15:47.031Z,49.70
2023-04-22T11:18:22.070Z,48.90
2023-04-22T11:20:51.196Z,48.90
2023-04-22T11:23:21.728Z,49.70
2023-04-22T11:25:55.167Z,50.20
2023-04-22T11:28:24.881Z,50.30
2023-04-22T11:30:53.395Z,50.20
2023-04-22T11:33:21.808Z,49.80
2023-04-22T11:35:51.790Z,49.40
2023-04-22T11:38:20.221Z,49.50
2023-04-22T11:40:49.000Z,50.20
2023-04-22T11:43:18.694Z,49.30
2023-04-22T11:45:48.668Z,49.10
2023-04-22T11:48:17.424Z,49.20
2023-04-22T11:50:45.892Z,49.60
2023-04-22T11:53:19.297Z,49.80
2023-04-22T11:55:51.025Z,50.10
2023-04-22T11:58:21.138Z,50.50
2023-04-22T12:00:53.301Z,50.80
2023-04-22T12:03:23.917Z,50.00
2023-04-22T12:05:54.650Z,50.90
2023-04-22T12:08:25.127Z,51.00
2023-04-22T12:10:54.752Z,51.00
2023-04-22T12:13:24.151Z,50.20
2023-04-22T12:15:56.949Z,50.50
2023-04-22T12:18:32.077Z,50.80
2023-04-22T12:21:09.461Z,50.90
2023-04-22T12:23:45.535Z,51.00
2023-04-22T12:26:14.329Z,50.70
2023-04-22T12:28:44.045Z,50.40
2023-04-22T12:31:14.466Z,50.80
2023-04-22T12:33:44.942Z,50.60
2023-04-22T12:36:13.783Z,50.20
2023-04-22T12:38:42.183Z,49.80
2023-04-22T12:41:10.682Z,49.80
2023-04-22T12:43:39.556Z,49.90
2023-04-22T12:46:08.876Z,50.20
2023-04-22T12:48:38.689Z,50.40
2023-04-22T12:51:07.712Z,50.20
2023-04-22T12:53:36.005Z,50.00
2023-04-22T12:56:04.679Z,50.00
2023-04-22T12:58:33.020Z,50.20
2023-04-22T13:01:01.260Z,50.30
2023-04-22T13:03:29.764Z,50.30
2023-04-22T13:05:59.694Z,50.30
2023-04-22T13:08:29.883Z,50.40
2023-04-22T13:10:59.334Z,50.70
2023-04-22T13:13:27.674Z,51.00
2023-04-22T13:15:56.752Z,50.90
2023-04-22T13:18:25.366Z,51.00
2023-04-22T13:20:57.063Z,51.10
2023-04-22T13:23:27.767Z,51.30
2023-04-22T13:25:56.277Z,51.50
2023-04-22T13:28:24.663Z,51.70
2023-04-22T13:30:53.121Z,51.90
2023-04-22T13:33:21.471Z,52.00
2023-04-22T13:35:49.857Z,52.20
2023-04-22T13:38:18.161Z,52.20
2023-04-22T13:40:48.209Z,52.60
2023-04-22T13:43:16.512Z,53.30
2023-04-22T13:45:44.935Z,54.20
2023-04-22T13:48:13.275Z,54.30
2023-04-22T13:50:42.846Z,54.80
2023-04-22T13:53:11.880Z,56.20
2023-04-22T13:55:40.855Z,57.10
2023-04-22T13:58:10.750Z,58.40
2023-04-22T14:00:39.214Z,59.40
2023-04-22T14:03:07.917Z,60.20
2023-04-22T14:05:37.054Z,61.80
2023-04-22T14:08:05.348Z,63.30
2023-04-22T14:10:33.620Z,66.20
2023-04-22T14:13:01.955Z,69.10
2023-04-22T14:15:31.679Z,69.70
2023-04-22T14:18:00.064Z,71.10
2023-04-22T14:20:28.472Z,71.70
2023-04-22T14:22:56.777Z,72.20
2023-04-22T14:25:25.156Z,71.00
2023-04-22T14:27:53.429Z,70.60
2023-04-22T14:30:22.030Z,70.50
2023-04-22T14:32:51.971Z,71.00
2023-04-22T14:35:20.689Z,71.20
2023-04-22T14:37:49.491Z,71.70
2023-04-22T14:40:17.804Z,71.40
2023-04-22T14:42:46.258Z,72.80
2023-04-22T14:45:15.789Z,73.80
2023-04-22T14:47:44.102Z,75.10
2023-04-22T14:50:14.058Z,76.60
2023-04-22T14:52:42.415Z,77.80
2023-04-22T14:55:22.042Z,78.30
2023-04-22T14:57:53.294Z,79.30
2023-04-22T15:00:21.835Z,80.00
2023-04-22T15:02:51.039Z,79.60
2023-04-22T15:05:22.377Z,80.30
2023-04-22T15:07:50.842Z,81.20
2023-04-22T15:10:19.429Z,81.00
2023-04-22T15:12:47.875Z,80.80
2023-04-22T15:15:17.966Z,80.70
2023-04-22T15:17:46.981Z,80.00
2023-04-22T15:20:15.777Z,79.40
2023-04-22T15:22:46.009Z,79.40
2023-04-22T15:25:16.024Z,79.10
2023-04-22T15:27:46.145Z,78.90
2023-04-22T15:30:14.703Z,78.80
2023-04-22T15:32:43.674Z,79.10
2023-04-22T15:35:12.202Z,79.00
2023-04-22T15:37:41.047Z,80.10
2023-04-22T15:40:11.359Z,79.50
2023-04-22T15:42:39.789Z,79.40
2023-04-22T15:45:14.889Z,78.90
2023-04-22T15:47:43.293Z,78.50
2023-04-22T15:50:15.336Z,78.70
2023-04-22T15:52:43.632Z,79.10
2023-04-22T15:55:13.526Z,79.10
2023-04-22T15:57:41.852Z,79.20
2023-04-22T16:00:13.665Z,79.40
2023-04-22T16:02:46.581Z,79.20
2023-04-22T16:05:15.187Z,79.10
2023-04-22T16:07:43.476Z,79.10
2023-04-22T16:10:14.604Z,79.10
2023-04-22T16:12:43.694Z,79.10
2023-04-22T16:15:18.053Z,79.20
2023-04-22T16:17:46.492Z,79.30
2023-04-22T16:20:14.812Z,79.40
2023-04-22T16:22:43.321Z,79.80
2023-04-22T16:25:13.019Z,79.90
2023-04-22T16:27:41.974Z,79.70
2023-04-22T16:30:11.007Z,79.40
2023-04-22T16:32:39.468Z,79.20
2023-04-22T16:35:09.255Z,79.30
2023-04-22T16:37:37.656Z,79.50
2023-04-22T16:40:06.789Z,79.50
2023-04-22T16:42:36.480Z,79.50
2023-04-22T16:45:05.190Z,79.60
2023-04-22T16:47:33.637Z,79.50
2023-04-22T16:50:03.913Z,79.70
2023-04-22T16:52:32.226Z,79.80
2023-04-22T16:55:00.552Z,79.80
2023-04-22T16:57:28.859Z,80.10
2023-04-22T16:59:58.613Z,80.40
2023-04-22T17:02:27.453Z,80.10
2023-04-22T17:04:55.769Z,80.20
2023-04-22T17:07:24.090Z,80.10
2023-04-22T17:09:52.398Z,80.10
2023-04-22T17:12:20.935Z,80.70
2023-04-22T17:14:49.153Z,80.80
2023-04-22T17:17:18.935Z,80.70
2023-04-22T17:19:47.311Z,80.80
2023-04-22T17:22:15.830Z,80.90
2023-04-22T17:24:44.309Z,81.00
2023-04-22T17:27:15.075Z,81.10
2023-04-22T17:29:45.235Z,81.30
2023-04-22T17:32:13.595Z,81.30
2023-04-22T17:37:33.792Z,81.80
2023-04-22T17:40:02.967Z,82.00
2023-04-22T17:42:44.682Z,81.90
2023-04-22T17:45:16.937Z,81.90
2023-04-22T17:47:45.260Z,82.20
2023-04-22T17:50:15.649Z,82.20
2023-04-22T17:52:49.619Z,82.20
2023-04-22T17:55:18.103Z,82.20
2023-04-22T17:57:46.498Z,82.40
2023-04-22T18:00:16.968Z,82.50
2023-04-22T18:02:45.688Z,82.50
2023-04-22T18:05:14.187Z,82.70
2023-04-22T18:07:42.543Z,82.60
2023-04-22T18:10:13.284Z,82.70
2023-04-22T18:12:41.858Z,82.70
2023-04-22T18:15:10.557Z,82.70
2023-04-22T18:17:38.936Z,82.70
2023-04-22T18:20:18.691Z,82.80
2023-04-22T18:22:48.674Z,83.10
2023-04-22T18:25:21.321Z,83.40
2023-04-22T18:27:50.715Z,84.00
2023-04-22T18:30:19.123Z,84.00
2023-04-22T18:32:48.200Z,84.40
2023-04-22T18:35:21.362Z,84.30
2023-04-22T18:37:51.782Z,84.30
2023-04-22T18:40:22.551Z,84.30
2023-04-22T18:42:51.009Z,84.20
2023-04-22T18:45:19.372Z,84.20
2023-04-22T18:47:47.685Z,84.20
2023-04-22T18:50:16.534Z,84.20
2023-04-22T18:52:45.133Z,84.30
2023-04-22T18:55:13.657Z,84.30
2023-04-22T18:57:45.130Z,84.30
2023-04-22T19:00:14.453Z,84.30
2023-04-22T19:02:43.990Z,84.40
2023-04-22T19:05:18.038Z,84.60
2023-04-22T19:07:46.344Z,84.60
2023-04-22T19:10:14.818Z,84.50
2023-04-22T19:12:47.655Z,84.30
2023-04-22T19:15:17.279Z,84.20
2023-04-22T19:17:45.670Z,84.10
2023-04-22T19:20:14.044Z,84.10
2023-04-22T19:22:43.729Z,84.10
2023-04-22T19:25:12.409Z,84.10
2023-04-22T19:27:40.815Z,84.10
2023-04-22T19:30:12.028Z,84.10
2023-04-22T19:32:40.590Z,84.10
2023-04-22T19:35:12.520Z,84.00
2023-04-22T19:37:40.842Z,84.00
2023-04-22T19:40:10.143Z,84.00
2023-04-22T19:42:38.450Z,83.90
2023-04-22T19:45:09.210Z,83.90
2023-04-22T19:47:39.921Z,83.90
2023-04-22T19:50:09.634Z,83.90
2023-04-22T19:52:38.054Z,83.80
2023-04-22T19:55:09.309Z,83.80
2023-04-22T19:57:38.831Z,84.00
2023-04-22T20:00:08.547Z,83.90
2023-04-22T20:02:38.856Z,84.00
2023-04-22T20:05:08.770Z,83.80
2023-04-22T20:07:38.177Z,83.80
2023-04-22T20:10:09.867Z,83.80
2023-04-22T20:12:38.417Z,83.70
2023-04-22T20:15:08.721Z,83.70
2023-04-22T20:17:39.594Z,83.60
2023-04-22T20:20:13.158Z,83.50
2023-04-22T20:22:42.602Z,83.40
2023-04-22T20:25:14.926Z,83.40
2023-04-22T20:27:44.146Z,83.30
2023-04-22T20:30:14.615Z,83.30
2023-04-22T20:32:44.709Z,83.20
2023-04-22T20:35:16.639Z,83.10
2023-04-22T20:37:47.216Z,83.10
2023-04-22T20:40:16.112Z,83.10
2023-04-22T20:42:44.489Z,83.20
2023-04-22T20:45:15.744Z,83.30
2023-04-22T20:47:46.203Z,83.30
2023-04-22T20:50:16.047Z,83.40
2023-04-22T20:52:44.481Z,83.30
2023-04-22T20:55:12.804Z,83.30
2023-04-22T20:57:41.204Z,83.40
2023-04-22T21:00:11.427Z,83.40
2023-04-22T21:02:40.770Z,83.40
2023-04-22T21:05:12.348Z,83.40
2023-04-22T21:07:41.604Z,83.40
2023-04-22T21:10:11.412Z,83.50
2023-04-22T21:12:40.125Z,83.60
2023-04-22T21:15:09.972Z,83.60
2023-04-22T21:17:44.568Z,83.50
2023-04-22T21:20:14.742Z,83.60
2023-04-22T21:22:44.817Z,83.70
2023-04-22T21:25:22.064Z,83.80
2023-04-22T21:27:51.128Z,83.80
2023-04-22T21:30:20.543Z,83.70
2023-04-22T21:32:48.932Z,83.80
2023-04-22T21:35:18.711Z,83.80
2023-04-22T21:37:47.120Z,83.80
2023-04-22T21:40:15.441Z,83.90
2023-04-22T21:42:43.767Z,83.90
2023-04-22T21:45:12.905Z,83.80
2023-04-22T21:47:41.272Z,83.90
2023-04-22T21:50:10.259Z,84.00
2023-04-22T21:52:40.131Z,84.50
2023-04-22T21:55:09.023Z,84.20
2023-04-22T21:57:37.311Z,84.20
2023-04-22T22:00:08.212Z,84.20
2023-04-22T22:02:36.806Z,84.30
2023-04-22T22:05:06.087Z,84.40
2023-04-22T22:07:34.732Z,84.40
2023-04-22T22:10:04.710Z,84.50
2023-04-22T22:12:33.034Z,84.40
2023-04-22T22:15:01.326Z,84.40
2023-04-22T22:17:30.080Z,84.50
2023-04-22T22:19:58.534Z,84.50
2023-04-22T22:22:27.063Z,84.60
2023-04-22T22:24:55.358Z,84.50
2023-04-22T22:27:25.431Z,84.60
2023-04-22T22:29:53.775Z,84.70
2023-04-22T22:32:22.481Z,84.70
2023-04-22T22:34:50.846Z,84.70
2023-04-22T22:37:19.197Z,85.20
2023-04-22T22:39:47.595Z,85.50
2023-04-22T22:42:15.862Z,86.10
2023-04-22T22:44:45.599Z,85.70
2023-04-22T22:47:14.053Z,85.50
2023-04-22T22:49:42.909Z,85.70
2023-04-22T22:52:11.898Z,85.80
2023-04-22T22:54:41.556Z,85.80
2023-04-22T22:57:11.792Z,85.90
2023-04-22T22:59:40.031Z,85.90
2023-04-22T23:02:09.930Z,85.80
2023-04-22T23:04:39.485Z,85.80
2023-04-22T23:07:08.035Z,85.80
2023-04-22T23:09:36.391Z,85.80
2023-04-22T23:12:05.504Z,85.70
2023-04-22T23:14:33.931Z,85.80
2023-04-22T23:17:02.814Z,85.80
2023-04-22T23:19:34.408Z,85.80
2023-04-22T23:22:03.066Z,85.80
2023-04-22T23:24:31.967Z,85.80
2023-04-22T23:27:01.347Z,85.90
2023-04-22T23:29:30.978Z,86.10
2023-04-22T23:32:03.674Z,86.20
2023-04-22T23:34:35.249Z,86.20
2023-04-22T23:37:06.590Z,86.30
2023-04-22T23:39:34.942Z,86.20
2023-04-22T23:42:03.228Z,86.10
2023-04-22T23:44:31.529Z,86.10
2023-04-22T23:47:00.053Z,86.10
2023-04-22T23:49:28.972Z,86.10
2023-04-22T23:51:58.691Z,86.10
2023-04-22T23:54:27.408Z,86.10
2023-04-22T23:56:56.320Z,86.10
2023-04-22T23:59:33.188Z,86.20
